sensor_id;sensor_type;location;lat;lon;timestamp;P1;durP1;ratioP1;P2;durP2;ratioP2
9675;SDS011;4876;42.656;23.292;2023-11-19T00:00:24;3.43;;;2.67;;
9675;SDS011;4876;42.656;23.292;2023-11-19T00:02:53;4.13;;;2.77;;
9675;SDS011;4876;42.656;23.292;2023-11-19T00:05:20;2.63;;;2.27;;
9675;SDS011;4876;42.656;23.292;2023-11-19T00:07:46;3.50;;;2.60;;
9675;SDS011;4876;42.656;23.292;2023-11-19T00:10:13;3.20;;;2.63;;
9675;SDS011;4876;42.656;23.292;2023-11-19T00:12:44;3.07;;;2.70;;
9675;SDS011;4876;42.656;23.292;2023-11-19T00:15:13;5.07;;;2.20;;
9675;SDS011;4876;42.656;23.292;2023-11-19T00:17:40;3.10;;;2.37;;
9675;SDS011;4876;42.656;23.292;2023-11-19T00:20:11;3.17;;;2.60;;
9675;SDS011;4876;42.656;23.292;2023-11-19T00:22:38;3.47;;;2.50;;
9675;SDS011;4876;42.656;23.292;2023-11-19T00:25:07;3.40;;;2.37;;
9675;SDS011;4876;42.656;23.292;2023-11-19T00:27:34;2.43;;;2.23;;
9675;SDS011;4876;42.656;23.292;2023-11-19T00:30:01;3.80;;;2.50;;
9675;SDS011;4876;42.656;23.292;2023-11-19T00:32:30;2.40;;;2.00;;
9675;SDS011;4876;42.656;23.292;2023-11-19T00:34:57;2.50;;;2.20;;
9675;SDS011;4876;42.656;23.292;2023-11-19T00:37:26;3.17;;;2.63;;
9675;SDS011;4876;42.656;23.292;2023-11-19T00:39:53;3.30;;;2.53;;
9675;SDS011;4876;42.656;23.292;2023-11-19T00:42:21;4.03;;;2.70;;
9675;SDS011;4876;42.656;23.292;2023-11-19T00:44:48;4.27;;;2.23;;
9675;SDS011;4876;42.656;23.292;2023-11-19T00:47:15;2.40;;;2.20;;
9675;SDS011;4876;42.656;23.292;2023-11-19T00:49:42;4.77;;;2.70;;
9675;SDS011;4876;42.656;23.292;2023-11-19T00:52:09;2.53;;;2.30;;
9675;SDS011;4876;42.656;23.292;2023-11-19T00:54:37;2.77;;;2.50;;
9675;SDS011;4876;42.656;23.292;2023-11-19T00:57:04;2.60;;;2.40;;
9675;SDS011;4876;42.656;23.292;2023-11-19T00:59:31;2.43;;;2.20;;
9675;SDS011;4876;42.656;23.292;2023-11-19T01:01:58;2.63;;;2.40;;
9675;SDS011;4876;42.656;23.292;2023-11-19T01:04:28;2.60;;;2.23;;
9675;SDS011;4876;42.656;23.292;2023-11-19T01:06:55;4.10;;;2.27;;
9675;SDS011;4876;42.656;23.292;2023-11-19T01:09:21;3.10;;;2.80;;
9675;SDS011;4876;42.656;23.292;2023-11-19T01:11:50;3.30;;;2.43;;
9675;SDS011;4876;42.656;23.292;2023-11-19T01:14:17;2.37;;;2.03;;
9675;SDS011;4876;42.656;23.292;2023-11-19T01:16:44;1.90;;;1.70;;
9675;SDS011;4876;42.656;23.292;2023-11-19T01:19:11;2.53;;;2.23;;
9675;SDS011;4876;42.656;23.292;2023-11-19T01:21:38;3.17;;;2.37;;
9675;SDS011;4876;42.656;23.292;2023-11-19T01:24:05;2.97;;;2.67;;
9675;SDS011;4876;42.656;23.292;2023-11-19T01:26:34;2.63;;;2.27;;
9675;SDS011;4876;42.656;23.292;2023-11-19T01:29:02;2.83;;;2.47;;
9675;SDS011;4876;42.656;23.292;2023-11-19T01:31:29;2.57;;;2.33;;
9675;SDS011;4876;42.656;23.292;2023-11-19T01:33:57;4.53;;;2.30;;
9675;SDS011;4876;42.656;23.292;2023-11-19T01:36:23;2.60;;;2.40;;
9675;SDS011;4876;42.656;23.292;2023-11-19T01:38:50;2.40;;;2.20;;
9675;SDS011;4876;42.656;23.292;2023-11-19T01:41:17;4.53;;;2.20;;
9675;SDS011;4876;42.656;23.292;2023-11-19T01:43:44;3.33;;;2.17;;
9675;SDS011;4876;42.656;23.292;2023-11-19T01:46:13;2.83;;;2.17;;
9675;SDS011;4876;42.656;23.292;2023-11-19T01:48:41;3.33;;;2.33;;
9675;SDS011;4876;42.656;23.292;2023-11-19T01:51:09;3.60;;;2.20;;
9675;SDS011;4876;42.656;23.292;2023-11-19T01:53:38;3.03;;;2.60;;
9675;SDS011;4876;42.656;23.292;2023-11-19T01:56:07;2.90;;;2.60;;
9675;SDS011;4876;42.656;23.292;2023-11-19T01:58:35;2.30;;;2.10;;
9675;SDS011;4876;42.656;23.292;2023-11-19T02:01:04;2.53;;;2.00;;
9675;SDS011;4876;42.656;23.292;2023-11-19T02:03:34;3.13;;;2.33;;
9675;SDS011;4876;42.656;23.292;2023-11-19T02:06:01;2.37;;;2.17;;
9675;SDS011;4876;42.656;23.292;2023-11-19T02:08:28;3.20;;;2.33;;
9675;SDS011;4876;42.656;23.292;2023-11-19T02:10:56;2.60;;;2.30;;
9675;SDS011;4876;42.656;23.292;2023-11-19T02:13:23;3.63;;;1.77;;
9675;SDS011;4876;42.656;23.292;2023-11-19T02:15:51;3.17;;;2.30;;
9675;SDS011;4876;42.656;23.292;2023-11-19T02:18:18;2.27;;;2.00;;
9675;SDS011;4876;42.656;23.292;2023-11-19T02:20:48;2.37;;;1.93;;
9675;SDS011;4876;42.656;23.292;2023-11-19T02:23:15;2.40;;;2.20;;
9675;SDS011;4876;42.656;23.292;2023-11-19T02:25:45;3.27;;;2.33;;
9675;SDS011;4876;42.656;23.292;2023-11-19T02:28:19;2.83;;;2.00;;
9675;SDS011;4876;42.656;23.292;2023-11-19T02:30:47;2.53;;;1.87;;
9675;SDS011;4876;42.656;23.292;2023-11-19T02:33:14;3.60;;;2.10;;
9675;SDS011;4876;42.656;23.292;2023-11-19T02:35:40;2.43;;;2.20;;
9675;SDS011;4876;42.656;23.292;2023-11-19T02:38:07;2.70;;;2.10;;
9675;SDS011;4876;42.656;23.292;2023-11-19T02:40:34;3.03;;;2.00;;
9675;SDS011;4876;42.656;23.292;2023-11-19T02:43:01;3.00;;;2.43;;
9675;SDS011;4876;42.656;23.292;2023-11-19T02:45:31;2.90;;;2.30;;
9675;SDS011;4876;42.656;23.292;2023-11-19T02:47:58;4.13;;;2.20;;
9675;SDS011;4876;42.656;23.292;2023-11-19T02:50:27;4.03;;;2.40;;
9675;SDS011;4876;42.656;23.292;2023-11-19T02:52:54;2.50;;;1.83;;
9675;SDS011;4876;42.656;23.292;2023-11-19T02:55:22;3.67;;;2.60;;
9675;SDS011;4876;42.656;23.292;2023-11-19T02:57:50;2.53;;;2.30;;
9675;SDS011;4876;42.656;23.292;2023-11-19T03:00:20;2.50;;;2.10;;
9675;SDS011;4876;42.656;23.292;2023-11-19T03:02:51;2.67;;;2.37;;
9675;SDS011;4876;42.656;23.292;2023-11-19T03:05:24;2.20;;;2.00;;
9675;SDS011;4876;42.656;23.292;2023-11-19T03:07:55;2.57;;;2.10;;
9675;SDS011;4876;42.656;23.292;2023-11-19T03:10:23;3.73;;;2.30;;
9675;SDS011;4876;42.656;23.292;2023-11-19T03:12:50;3.03;;;2.20;;
9675;SDS011;4876;42.656;23.292;2023-11-19T03:15:16;1.70;;;1.60;;
9675;SDS011;4876;42.656;23.292;2023-11-19T03:17:43;2.43;;;2.10;;
9675;SDS011;4876;42.656;23.292;2023-11-19T03:20:12;2.67;;;2.20;;
9675;SDS011;4876;42.656;23.292;2023-11-19T03:22:41;2.80;;;2.43;;
9675;SDS011;4876;42.656;23.292;2023-11-19T03:25:09;1.87;;;1.77;;
9675;SDS011;4876;42.656;23.292;2023-11-19T03:27:36;3.07;;;2.40;;
9675;SDS011;4876;42.656;23.292;2023-11-19T03:30:04;2.40;;;2.00;;
9675;SDS011;4876;42.656;23.292;2023-11-19T03:32:31;3.10;;;2.40;;
9675;SDS011;4876;42.656;23.292;2023-11-19T03:35:00;2.53;;;2.23;;
9675;SDS011;4876;42.656;23.292;2023-11-19T03:37:30;2.40;;;2.03;;
9675;SDS011;4876;42.656;23.292;2023-11-19T03:39:57;4.50;;;2.80;;
9675;SDS011;4876;42.656;23.292;2023-11-19T03:42:25;2.47;;;1.90;;
9675;SDS011;4876;42.656;23.292;2023-11-19T03:44:53;3.10;;;2.67;;
9675;SDS011;4876;42.656;23.292;2023-11-19T03:47:20;2.43;;;2.00;;
9675;SDS011;4876;42.656;23.292;2023-11-19T03:49:47;2.43;;;1.97;;
9675;SDS011;4876;42.656;23.292;2023-11-19T03:52:15;2.83;;;2.13;;
9675;SDS011;4876;42.656;23.292;2023-11-19T03:54:43;2.93;;;2.40;;
9675;SDS011;4876;42.656;23.292;2023-11-19T03:57:10;2.60;;;2.40;;
9675;SDS011;4876;42.656;23.292;2023-11-19T03:59:37;3.97;;;1.83;;
9675;SDS011;4876;42.656;23.292;2023-11-19T04:02:04;2.70;;;2.50;;
9675;SDS011;4876;42.656;23.292;2023-11-19T04:04:31;2.23;;;2.03;;
9675;SDS011;4876;42.656;23.292;2023-11-19T04:06:58;3.50;;;2.40;;
9675;SDS011;4876;42.656;23.292;2023-11-19T04:09:26;2.67;;;2.17;;
9675;SDS011;4876;42.656;23.292;2023-11-19T04:11:54;2.80;;;2.47;;
9675;SDS011;4876;42.656;23.292;2023-11-19T04:14:21;3.10;;;2.20;;
9675;SDS011;4876;42.656;23.292;2023-11-19T04:16:48;2.53;;;2.00;;
9675;SDS011;4876;42.656;23.292;2023-11-19T04:19:14;2.63;;;2.43;;
9675;SDS011;4876;42.656;23.292;2023-11-19T04:21:41;2.73;;;2.27;;
9675;SDS011;4876;42.656;23.292;2023-11-19T04:24:08;2.10;;;1.90;;
9675;SDS011;4876;42.656;23.292;2023-11-19T04:26:39;2.50;;;2.07;;
9675;SDS011;4876;42.656;23.292;2023-11-19T04:29:08;3.27;;;1.83;;
9675;SDS011;4876;42.656;23.292;2023-11-19T04:31:36;2.80;;;2.57;;
9675;SDS011;4876;42.656;23.292;2023-11-19T04:34:03;2.43;;;2.00;;
9675;SDS011;4876;42.656;23.292;2023-11-19T04:36:31;3.17;;;2.60;;
9675;SDS011;4876;42.656;23.292;2023-11-19T04:38:58;2.30;;;1.90;;
9675;SDS011;4876;42.656;23.292;2023-11-19T04:41:25;2.53;;;2.30;;
9675;SDS011;4876;42.656;23.292;2023-11-19T04:43:53;3.13;;;2.30;;
9675;SDS011;4876;42.656;23.292;2023-11-19T04:46:22;2.57;;;2.30;;
9675;SDS011;4876;42.656;23.292;2023-11-19T04:48:49;2.97;;;2.30;;
9675;SDS011;4876;42.656;23.292;2023-11-19T04:51:16;2.93;;;2.20;;
9675;SDS011;4876;42.656;23.292;2023-11-19T04:53:43;3.10;;;2.17;;
9675;SDS011;4876;42.656;23.292;2023-11-19T04:56:10;3.20;;;2.70;;
9675;SDS011;4876;42.656;23.292;2023-11-19T04:58:38;2.30;;;2.10;;
9675;SDS011;4876;42.656;23.292;2023-11-19T05:01:05;3.20;;;2.20;;
9675;SDS011;4876;42.656;23.292;2023-11-19T05:03:33;3.50;;;2.23;;
9675;SDS011;4876;42.656;23.292;2023-11-19T05:06:01;5.27;;;2.00;;
9675;SDS011;4876;42.656;23.292;2023-11-19T05:08:28;3.07;;;2.20;;
9675;SDS011;4876;42.656;23.292;2023-11-19T05:10:55;3.10;;;2.43;;
9675;SDS011;4876;42.656;23.292;2023-11-19T05:13:22;3.13;;;2.30;;
9675;SDS011;4876;42.656;23.292;2023-11-19T05:15:49;4.10;;;2.03;;
9675;SDS011;4876;42.656;23.292;2023-11-19T05:18:16;2.40;;;2.20;;
9675;SDS011;4876;42.656;23.292;2023-11-19T05:20:44;3.97;;;2.53;;
9675;SDS011;4876;42.656;23.292;2023-11-19T05:23:11;3.13;;;2.40;;
9675;SDS011;4876;42.656;23.292;2023-11-19T05:25:38;2.70;;;2.30;;
9675;SDS011;4876;42.656;23.292;2023-11-19T05:28:05;3.20;;;2.60;;
9675;SDS011;4876;42.656;23.292;2023-11-19T05:30:32;2.27;;;2.07;;
9675;SDS011;4876;42.656;23.292;2023-11-19T05:32:59;2.70;;;2.33;;
9675;SDS011;4876;42.656;23.292;2023-11-19T05:35:26;3.27;;;2.10;;
9675;SDS011;4876;42.656;23.292;2023-11-19T05:37:54;3.23;;;2.40;;
9675;SDS011;4876;42.656;23.292;2023-11-19T05:40:21;3.23;;;2.43;;
9675;SDS011;4876;42.656;23.292;2023-11-19T05:42:48;2.73;;;2.53;;
9675;SDS011;4876;42.656;23.292;2023-11-19T05:45:15;2.90;;;2.27;;
9675;SDS011;4876;42.656;23.292;2023-11-19T05:47:42;5.00;;;2.97;;
9675;SDS011;4876;42.656;23.292;2023-11-19T05:50:09;3.40;;;2.93;;
9675;SDS011;4876;42.656;23.292;2023-11-19T05:52:36;8.60;;;2.93;;
9675;SDS011;4876;42.656;23.292;2023-11-19T05:55:05;3.27;;;2.60;;
9675;SDS011;4876;42.656;23.292;2023-11-19T05:57:34;5.67;;;3.13;;
9675;SDS011;4876;42.656;23.292;2023-11-19T06:00:01;4.63;;;2.90;;
9675;SDS011;4876;42.656;23.292;2023-11-19T06:02:32;2.80;;;2.43;;
9675;SDS011;4876;42.656;23.292;2023-11-19T06:04:59;2.23;;;1.73;;
9675;SDS011;4876;42.656;23.292;2023-11-19T06:07:26;3.57;;;2.50;;
9675;SDS011;4876;42.656;23.292;2023-11-19T06:09:53;3.90;;;2.53;;
9675;SDS011;4876;42.656;23.292;2023-11-19T06:12:21;2.87;;;2.47;;
9675;SDS011;4876;42.656;23.292;2023-11-19T06:14:48;2.60;;;2.40;;
9675;SDS011;4876;42.656;23.292;2023-11-19T06:17:15;3.40;;;2.70;;
9675;SDS011;4876;42.656;23.292;2023-11-19T06:19:42;3.77;;;2.40;;
9675;SDS011;4876;42.656;23.292;2023-11-19T06:22:08;2.47;;;2.27;;
9675;SDS011;4876;42.656;23.292;2023-11-19T06:24:36;3.43;;;2.50;;
9675;SDS011;4876;42.656;23.292;2023-11-19T06:27:03;2.80;;;2.20;;
9675;SDS011;4876;42.656;23.292;2023-11-19T06:29:31;4.10;;;2.70;;
9675;SDS011;4876;42.656;23.292;2023-11-19T06:31:58;5.30;;;2.93;;
9675;SDS011;4876;42.656;23.292;2023-11-19T06:34:25;4.77;;;2.57;;
9675;SDS011;4876;42.656;23.292;2023-11-19T06:36:52;3.33;;;2.70;;
9675;SDS011;4876;42.656;23.292;2023-11-19T06:39:18;4.00;;;2.57;;
9675;SDS011;4876;42.656;23.292;2023-11-19T06:41:45;3.73;;;2.87;;
9675;SDS011;4876;42.656;23.292;2023-11-19T06:44:13;3.27;;;2.70;;
9675;SDS011;4876;42.656;23.292;2023-11-19T06:46:41;9.73;;;3.13;;
9675;SDS011;4876;42.656;23.292;2023-11-19T06:49:08;2.80;;;2.50;;
9675;SDS011;4876;42.656;23.292;2023-11-19T06:51:34;4.73;;;3.00;;
9675;SDS011;4876;42.656;23.292;2023-11-19T06:54:01;5.93;;;2.63;;
9675;SDS011;4876;42.656;23.292;2023-11-19T06:56:28;3.53;;;2.90;;
9675;SDS011;4876;42.656;23.292;2023-11-19T06:58:55;5.03;;;2.60;;
9675;SDS011;4876;42.656;23.292;2023-11-19T07:01:22;6.17;;;3.30;;
9675;SDS011;4876;42.656;23.292;2023-11-19T07:03:50;3.80;;;3.20;;
9675;SDS011;4876;42.656;23.292;2023-11-19T07:06:17;4.37;;;2.73;;
9675;SDS011;4876;42.656;23.292;2023-11-19T07:08:44;3.53;;;2.83;;
9675;SDS011;4876;42.656;23.292;2023-11-19T07:11:11;3.07;;;2.77;;
9675;SDS011;4876;42.656;23.292;2023-11-19T07:13:39;2.40;;;1.97;;
9675;SDS011;4876;42.656;23.292;2023-11-19T07:16:07;3.03;;;2.33;;
9675;SDS011;4876;42.656;23.292;2023-11-19T07:18:35;4.90;;;2.80;;
9675;SDS011;4876;42.656;23.292;2023-11-19T07:21:02;6.13;;;3.13;;
9675;SDS011;4876;42.656;23.292;2023-11-19T07:23:30;4.53;;;3.27;;
9675;SDS011;4876;42.656;23.292;2023-11-19T07:25:58;5.30;;;3.70;;
9675;SDS011;4876;42.656;23.292;2023-11-19T07:28:25;4.67;;;3.40;;
9675;SDS011;4876;42.656;23.292;2023-11-19T07:30:53;4.87;;;2.93;;
9675;SDS011;4876;42.656;23.292;2023-11-19T07:33:22;6.10;;;3.63;;
9675;SDS011;4876;42.656;23.292;2023-11-19T07:35:48;3.57;;;2.47;;
9675;SDS011;4876;42.656;23.292;2023-11-19T07:38:17;2.93;;;2.53;;
9675;SDS011;4876;42.656;23.292;2023-11-19T07:40:44;4.27;;;2.90;;
9675;SDS011;4876;42.656;23.292;2023-11-19T07:43:12;3.70;;;2.70;;
9675;SDS011;4876;42.656;23.292;2023-11-19T07:45:39;6.53;;;2.97;;
9675;SDS011;4876;42.656;23.292;2023-11-19T07:48:10;3.27;;;2.50;;
9675;SDS011;4876;42.656;23.292;2023-11-19T07:50:38;4.33;;;3.00;;
9675;SDS011;4876;42.656;23.292;2023-11-19T07:53:06;3.53;;;2.57;;
9675;SDS011;4876;42.656;23.292;2023-11-19T07:55:34;3.63;;;3.10;;
9675;SDS011;4876;42.656;23.292;2023-11-19T07:58:01;3.80;;;2.40;;
9675;SDS011;4876;42.656;23.292;2023-11-19T08:00:27;3.50;;;3.07;;
9675;SDS011;4876;42.656;23.292;2023-11-19T08:02:54;4.77;;;2.63;;
9675;SDS011;4876;42.656;23.292;2023-11-19T08:05:21;3.60;;;2.70;;
9675;SDS011;4876;42.656;23.292;2023-11-19T08:07:49;4.07;;;3.33;;
9675;SDS011;4876;42.656;23.292;2023-11-19T08:10:18;4.87;;;3.30;;
9675;SDS011;4876;42.656;23.292;2023-11-19T08:12:46;2.97;;;2.67;;
9675;SDS011;4876;42.656;23.292;2023-11-19T08:15:13;4.63;;;3.90;;
9675;SDS011;4876;42.656;23.292;2023-11-19T08:17:40;5.03;;;3.53;;
9675;SDS011;4876;42.656;23.292;2023-11-19T08:20:08;5.63;;;3.37;;
9675;SDS011;4876;42.656;23.292;2023-11-19T08:22:35;4.60;;;3.03;;
9675;SDS011;4876;42.656;23.292;2023-11-19T08:25:03;5.40;;;4.37;;
9675;SDS011;4876;42.656;23.292;2023-11-19T08:27:30;6.53;;;4.93;;
9675;SDS011;4876;42.656;23.292;2023-11-19T08:29:59;4.97;;;3.63;;
9675;SDS011;4876;42.656;23.292;2023-11-19T08:32:26;5.33;;;3.63;;
9675;SDS011;4876;42.656;23.292;2023-11-19T08:34:53;3.37;;;2.53;;
9675;SDS011;4876;42.656;23.292;2023-11-19T08:37:21;4.47;;;3.60;;
9675;SDS011;4876;42.656;23.292;2023-11-19T08:39:48;7.53;;;3.90;;
9675;SDS011;4876;42.656;23.292;2023-11-19T08:42:15;4.20;;;3.40;;
9675;SDS011;4876;42.656;23.292;2023-11-19T08:44:42;4.53;;;3.50;;
9675;SDS011;4876;42.656;23.292;2023-11-19T08:47:10;3.77;;;3.30;;
9675;SDS011;4876;42.656;23.292;2023-11-19T08:49:37;4.77;;;3.53;;
9675;SDS011;4876;42.656;23.292;2023-11-19T08:52:04;4.87;;;3.57;;
9675;SDS011;4876;42.656;23.292;2023-11-19T08:54:33;4.63;;;3.23;;
9675;SDS011;4876;42.656;23.292;2023-11-19T08:56:59;8.87;;;3.40;;
9675;SDS011;4876;42.656;23.292;2023-11-19T08:59:28;4.20;;;3.57;;
9675;SDS011;4876;42.656;23.292;2023-11-19T09:01:55;3.80;;;2.80;;
9675;SDS011;4876;42.656;23.292;2023-11-19T09:04:23;4.07;;;3.60;;
9675;SDS011;4876;42.656;23.292;2023-11-19T09:06:50;5.07;;;3.10;;
9675;SDS011;4876;42.656;23.292;2023-11-19T09:09:17;4.33;;;3.30;;
9675;SDS011;4876;42.656;23.292;2023-11-19T09:11:44;3.07;;;2.77;;
9675;SDS011;4876;42.656;23.292;2023-11-19T09:14:10;4.10;;;3.13;;
9675;SDS011;4876;42.656;23.292;2023-11-19T09:16:38;3.60;;;2.97;;
9675;SDS011;4876;42.656;23.292;2023-11-19T09:19:04;3.70;;;2.90;;
9675;SDS011;4876;42.656;23.292;2023-11-19T09:21:33;4.27;;;3.10;;
9675;SDS011;4876;42.656;23.292;2023-11-19T09:24:03;4.50;;;2.90;;
9675;SDS011;4876;42.656;23.292;2023-11-19T09:26:30;3.17;;;2.70;;
9675;SDS011;4876;42.656;23.292;2023-11-19T09:28:57;3.80;;;3.33;;
9675;SDS011;4876;42.656;23.292;2023-11-19T09:31:24;4.53;;;3.60;;
9675;SDS011;4876;42.656;23.292;2023-11-19T09:33:50;4.40;;;2.90;;
9675;SDS011;4876;42.656;23.292;2023-11-19T09:36:17;3.47;;;2.90;;
9675;SDS011;4876;42.656;23.292;2023-11-19T09:38:45;3.13;;;2.83;;
9675;SDS011;4876;42.656;23.292;2023-11-19T09:41:12;3.87;;;3.07;;
9675;SDS011;4876;42.656;23.292;2023-11-19T09:43:39;3.57;;;2.83;;
9675;SDS011;4876;42.656;23.292;2023-11-19T09:46:07;3.97;;;2.87;;
9675;SDS011;4876;42.656;23.292;2023-11-19T09:48:37;4.70;;;3.50;;
9675;SDS011;4876;42.656;23.292;2023-11-19T09:51:05;3.20;;;2.73;;
9675;SDS011;4876;42.656;23.292;2023-11-19T09:53:32;2.57;;;2.03;;
9675;SDS011;4876;42.656;23.292;2023-11-19T09:56:01;4.83;;;2.70;;
9675;SDS011;4876;42.656;23.292;2023-11-19T09:58:29;2.50;;;2.30;;
9675;SDS011;4876;42.656;23.292;2023-11-19T10:00:56;3.50;;;2.10;;
9675;SDS011;4876;42.656;23.292;2023-11-19T10:03:25;2.23;;;1.97;;
9675;SDS011;4876;42.656;23.292;2023-11-19T10:05:56;6.53;;;3.33;;
9675;SDS011;4876;42.656;23.292;2023-11-19T10:08:23;3.53;;;3.10;;
9675;SDS011;4876;42.656;23.292;2023-11-19T10:10:50;3.50;;;2.63;;
9675;SDS011;4876;42.656;23.292;2023-11-19T10:13:19;2.73;;;2.40;;
9675;SDS011;4876;42.656;23.292;2023-11-19T10:15:45;2.63;;;2.33;;
9675;SDS011;4876;42.656;23.292;2023-11-19T10:18:15;4.67;;;3.40;;
9675;SDS011;4876;42.656;23.292;2023-11-19T10:20:42;2.40;;;2.20;;
9675;SDS011;4876;42.656;23.292;2023-11-19T10:23:09;4.00;;;2.40;;
9675;SDS011;4876;42.656;23.292;2023-11-19T10:25:36;2.80;;;2.30;;
9675;SDS011;4876;42.656;23.292;2023-11-19T10:28:03;3.70;;;3.10;;
9675;SDS011;4876;42.656;23.292;2023-11-19T10:30:31;3.23;;;2.70;;
9675;SDS011;4876;42.656;23.292;2023-11-19T10:33:02;4.77;;;3.77;;
9675;SDS011;4876;42.656;23.292;2023-11-19T10:35:30;3.30;;;2.70;;
9675;SDS011;4876;42.656;23.292;2023-11-19T10:37:58;3.53;;;2.60;;
9675;SDS011;4876;42.656;23.292;2023-11-19T10:40:37;3.07;;;2.33;;
9675;SDS011;4876;42.656;23.292;2023-11-19T10:43:05;2.83;;;2.37;;
9675;SDS011;4876;42.656;23.292;2023-11-19T10:45:34;2.60;;;2.07;;
9675;SDS011;4876;42.656;23.292;2023-11-19T10:48:02;3.20;;;2.37;;
9675;SDS011;4876;42.656;23.292;2023-11-19T10:50:32;3.17;;;2.63;;
9675;SDS011;4876;42.656;23.292;2023-11-19T10:52:59;5.37;;;2.97;;
9675;SDS011;4876;42.656;23.292;2023-11-19T10:55:27;2.53;;;2.03;;
9675;SDS011;4876;42.656;23.292;2023-11-19T10:57:55;3.20;;;2.80;;
9675;SDS011;4876;42.656;23.292;2023-11-19T11:00:26;4.43;;;2.43;;
9675;SDS011;4876;42.656;23.292;2023-11-19T11:02:59;2.60;;;1.90;;
9675;SDS011;4876;42.656;23.292;2023-11-19T11:05:27;4.57;;;2.60;;
9675;SDS011;4876;42.656;23.292;2023-11-19T11:07:59;2.50;;;2.30;;
9675;SDS011;4876;42.656;23.292;2023-11-19T11:10:27;5.10;;;2.60;;
9675;SDS011;4876;42.656;23.292;2023-11-19T11:12:59;2.97;;;2.47;;
9675;SDS011;4876;42.656;23.292;2023-11-19T11:15:29;4.27;;;2.73;;
9675;SDS011;4876;42.656;23.292;2023-11-19T11:17:59;3.20;;;2.57;;
9675;SDS011;4876;42.656;23.292;2023-11-19T11:20:28;2.83;;;2.27;;
9675;SDS011;4876;42.656;23.292;2023-11-19T11:23:08;6.03;;;1.90;;
9675;SDS011;4876;42.656;23.292;2023-11-19T11:25:56;4.23;;;2.53;;
9675;SDS011;4876;42.656;23.292;2023-11-19T11:28:34;3.53;;;2.33;;
9675;SDS011;4876;42.656;23.292;2023-11-19T11:31:15;3.13;;;2.63;;
9675;SDS011;4876;42.656;23.292;2023-11-19T11:34:06;2.50;;;2.30;;
9675;SDS011;4876;42.656;23.292;2023-11-19T11:36:53;2.60;;;2.27;;
9675;SDS011;4876;42.656;23.292;2023-11-19T11:39:29;2.13;;;1.93;;
9675;SDS011;4876;42.656;23.292;2023-11-19T11:45:00;2.90;;;2.50;;
9675;SDS011;4876;42.656;23.292;2023-11-19T11:50:35;2.50;;;2.07;;
9675;SDS011;4876;42.656;23.292;2023-11-19T11:53:15;2.23;;;2.03;;
9675;SDS011;4876;42.656;23.292;2023-11-19T11:55:54;2.70;;;2.00;;
9675;SDS011;4876;42.656;23.292;2023-11-19T11:58:28;1.50;;;1.40;;
9675;SDS011;4876;42.656;23.292;2023-11-19T12:00:57;3.93;;;3.23;;
9675;SDS011;4876;42.656;23.292;2023-11-19T12:03:27;2.57;;;2.00;;
9675;SDS011;4876;42.656;23.292;2023-11-19T12:05:57;1.83;;;1.70;;
9675;SDS011;4876;42.656;23.292;2023-11-19T12:08:25;2.87;;;2.20;;
9675;SDS011;4876;42.656;23.292;2023-11-19T12:10:53;3.93;;;2.57;;
9675;SDS011;4876;42.656;23.292;2023-11-19T12:13:23;2.67;;;2.43;;
9675;SDS011;4876;42.656;23.292;2023-11-19T12:16:09;3.37;;;2.37;;
9675;SDS011;4876;42.656;23.292;2023-11-19T12:18:38;1.67;;;1.57;;
9675;SDS011;4876;42.656;23.292;2023-11-19T12:21:08;2.57;;;2.20;;
9675;SDS011;4876;42.656;23.292;2023-11-19T12:23:45;3.40;;;2.33;;
9675;SDS011;4876;42.656;23.292;2023-11-19T12:26:32;3.67;;;2.40;;
9675;SDS011;4876;42.656;23.292;2023-11-19T12:29:00;2.37;;;2.17;;
9675;SDS011;4876;42.656;23.292;2023-11-19T12:31:29;2.30;;;2.10;;
9675;SDS011;4876;42.656;23.292;2023-11-19T12:33:56;2.67;;;1.70;;
9675;SDS011;4876;42.656;23.292;2023-11-19T12:36:25;2.90;;;2.20;;
9675;SDS011;4876;42.656;23.292;2023-11-19T12:38:51;3.57;;;2.13;;
9675;SDS011;4876;42.656;23.292;2023-11-19T12:41:18;3.27;;;2.10;;
9675;SDS011;4876;42.656;23.292;2023-11-19T12:43:48;2.67;;;2.10;;
9675;SDS011;4876;42.656;23.292;2023-11-19T12:46:19;1.90;;;1.80;;
9675;SDS011;4876;42.656;23.292;2023-11-19T12:48:46;3.30;;;2.30;;
9675;SDS011;4876;42.656;23.292;2023-11-19T12:51:13;2.93;;;2.40;;
9675;SDS011;4876;42.656;23.292;2023-11-19T12:53:48;4.20;;;2.40;;
9675;SDS011;4876;42.656;23.292;2023-11-19T12:56:19;2.80;;;2.47;;
9675;SDS011;4876;42.656;23.292;2023-11-19T12:58:46;3.50;;;2.47;;
9675;SDS011;4876;42.656;23.292;2023-11-19T13:01:15;3.37;;;2.60;;
9675;SDS011;4876;42.656;23.292;2023-11-19T13:03:43;3.00;;;2.20;;
9675;SDS011;4876;42.656;23.292;2023-11-19T13:06:11;2.40;;;1.83;;
9675;SDS011;4876;42.656;23.292;2023-11-19T13:08:39;4.07;;;2.70;;
9675;SDS011;4876;42.656;23.292;2023-11-19T13:11:08;2.73;;;1.90;;
9675;SDS011;4876;42.656;23.292;2023-11-19T13:13:54;4.17;;;1.77;;
9675;SDS011;4876;42.656;23.292;2023-11-19T13:16:22;2.40;;;1.87;;
9675;SDS011;4876;42.656;23.292;2023-11-19T13:18:53;2.50;;;2.20;;
9675;SDS011;4876;42.656;23.292;2023-11-19T13:21:20;8.57;;;2.67;;
9675;SDS011;4876;42.656;23.292;2023-11-19T13:23:47;4.23;;;2.30;;
9675;SDS011;4876;42.656;23.292;2023-11-19T13:26:15;2.13;;;1.90;;
9675;SDS011;4876;42.656;23.292;2023-11-19T13:28:42;2.90;;;2.33;;
9675;SDS011;4876;42.656;23.292;2023-11-19T13:31:09;2.60;;;2.27;;
9675;SDS011;4876;42.656;23.292;2023-11-19T13:33:36;4.03;;;1.73;;
9675;SDS011;4876;42.656;23.292;2023-11-19T13:36:04;8.23;;;2.30;;
9675;SDS011;4876;42.656;23.292;2023-11-19T13:38:32;2.30;;;2.10;;
9675;SDS011;4876;42.656;23.292;2023-11-19T13:41:00;4.47;;;2.20;;
9675;SDS011;4876;42.656;23.292;2023-11-19T13:43:29;2.30;;;2.10;;
9675;SDS011;4876;42.656;23.292;2023-11-19T13:45:56;3.00;;;2.40;;
9675;SDS011;4876;42.656;23.292;2023-11-19T13:48:23;1.93;;;1.63;;
9675;SDS011;4876;42.656;23.292;2023-11-19T13:50:52;2.27;;;1.90;;
9675;SDS011;4876;42.656;23.292;2023-11-19T13:53:19;2.60;;;2.33;;
9675;SDS011;4876;42.656;23.292;2023-11-19T13:55:45;2.83;;;2.17;;
9675;SDS011;4876;42.656;23.292;2023-11-19T13:58:13;5.70;;;1.87;;
9675;SDS011;4876;42.656;23.292;2023-11-19T14:00:41;3.00;;;2.17;;
9675;SDS011;4876;42.656;23.292;2023-11-19T14:03:08;2.90;;;2.30;;
9675;SDS011;4876;42.656;23.292;2023-11-19T14:05:36;4.33;;;2.50;;
9675;SDS011;4876;42.656;23.292;2023-11-19T14:08:03;3.07;;;2.30;;
9675;SDS011;4876;42.656;23.292;2023-11-19T14:10:36;6.67;;;2.43;;
9675;SDS011;4876;42.656;23.292;2023-11-19T14:13:05;4.80;;;2.27;;
9675;SDS011;4876;42.656;23.292;2023-11-19T14:15:32;6.20;;;2.73;;
9675;SDS011;4876;42.656;23.292;2023-11-19T14:18:01;4.03;;;2.93;;
9675;SDS011;4876;42.656;23.292;2023-11-19T14:20:28;2.67;;;2.27;;
9675;SDS011;4876;42.656;23.292;2023-11-19T14:22:55;4.50;;;2.20;;
9675;SDS011;4876;42.656;23.292;2023-11-19T14:25:22;4.00;;;2.33;;
9675;SDS011;4876;42.656;23.292;2023-11-19T14:27:49;3.77;;;2.20;;
9675;SDS011;4876;42.656;23.292;2023-11-19T14:30:16;2.90;;;1.60;;
9675;SDS011;4876;42.656;23.292;2023-11-19T14:32:43;2.87;;;2.00;;
9675;SDS011;4876;42.656;23.292;2023-11-19T14:35:12;4.07;;;2.40;;
9675;SDS011;4876;42.656;23.292;2023-11-19T14:37:39;5.30;;;2.67;;
9675;SDS011;4876;42.656;23.292;2023-11-19T14:40:06;3.23;;;2.67;;
9675;SDS011;4876;42.656;23.292;2023-11-19T14:42:36;2.43;;;2.10;;
9675;SDS011;4876;42.656;23.292;2023-11-19T14:45:04;1.70;;;1.50;;
9675;SDS011;4876;42.656;23.292;2023-11-19T14:47:32;3.07;;;2.10;;
9675;SDS011;4876;42.656;23.292;2023-11-19T14:49:59;2.27;;;1.63;;
9675;SDS011;4876;42.656;23.292;2023-11-19T14:52:27;3.50;;;2.30;;
9675;SDS011;4876;42.656;23.292;2023-11-19T14:54:54;2.10;;;1.90;;
9675;SDS011;4876;42.656;23.292;2023-11-19T14:57:21;3.47;;;2.40;;
9675;SDS011;4876;42.656;23.292;2023-11-19T14:59:48;2.73;;;2.30;;
9675;SDS011;4876;42.656;23.292;2023-11-19T15:02:16;9.27;;;5.40;;
9675;SDS011;4876;42.656;23.292;2023-11-19T15:04:42;5.80;;;4.17;;
9675;SDS011;4876;42.656;23.292;2023-11-19T15:07:11;8.87;;;5.57;;
9675;SDS011;4876;42.656;23.292;2023-11-19T15:09:39;12.33;;;6.60;;
9675;SDS011;4876;42.656;23.292;2023-11-19T15:12:06;10.73;;;5.47;;